sensor_id;sensor_type;location;lat;lon;timestamp;pressure;altitude;pressure_sealevel;temperature;humidity
5462;BME280;912;48.130;11.348;2022-07-23T00:00:11;95459.36;;;22.47;100.00
5462;BME280;912;48.130;11.348;2022-07-23T00:02:52;95450.61;;;22.58;100.00
5462;BME280;912;48.130;11.348;2022-07-23T00:05:34;95436.95;;;22.80;100.00
5462;BME280;912;48.130;11.348;2022-07-23T00:08:19;95438.69;;;22.98;100.00
5462;BME280;912;48.130;11.348;2022-07-23T00:11:00;95447.55;;;23.06;100.00
5462;BME280;912;48.130;11.348;2022-07-23T00:13:44;95456.61;;;23.13;100.00
5462;BME280;912;48.130;11.348;2022-07-23T00:16:28;95462.94;;;23.14;100.00
5462;BME280;912;48.130;11.348;2022-07-23T00:19:09;95462.11;;;23.21;100.00
5462;BME280;912;48.130;11.348;2022-07-23T00:21:51;95468.64;;;23.20;100.00
5462;BME280;912;48.130;11.348;2022-07-23T00:24:33;95474.88;;;23.17;100.00
5462;BME280;912;48.130;11.348;2022-07-23T00:27:17;95476.30;;;23.13;100.00
5462;BME280;912;48.130;11.348;2022-07-23T00:29:59;95473.22;;;22.97;100.00
5462;BME280;912;48.130;11.348;2022-07-23T00:32:56;95476.81;;;22.88;100.00
5462;BME280;912;48.130;11.348;2022-07-23T00:35:50;95484.73;;;22.83;100.00
5462;BME280;912;48.130;11.348;2022-07-23T00:38:32;95485.98;;;22.88;100.00
5462;BME280;912;48.130;11.348;2022-07-23T00:41:14;95489.19;;;22.83;100.00
5462;BME280;912;48.130;11.348;2022-07-23T00:43:55;95494.70;;;22.78;100.00
5462;BME280;912;48.130;11.348;2022-07-23T00:46:37;95507.31;;;22.78;100.00
5462;BME280;912;48.130;11.348;2022-07-23T00:49:28;95511.66;;;22.72;100.00
5462;BME280;912;48.130;11.348;2022-07-23T00:52:08;95522.78;;;22.78;100.00
5462;BME280;912;48.130;11.348;2022-07-23T00:54:50;95555.83;;;22.69;100.00
5462;BME280;912;48.130;11.348;2022-07-23T00:57:32;95585.47;;;22.61;100.00
5462;BME280;912;48.130;11.348;2022-07-23T01:00:14;95584.21;;;23.07;100.00
5462;BME280;912;48.130;11.348;2022-07-23T01:02:55;95607.52;;;23.26;100.00
5462;BME280;912;48.130;11.348;2022-07-23T01:08:11;95642.05;;;23.50;100.00
5462;BME280;912;48.130;11.348;2022-07-23T01:10:53;95663.31;;;23.47;100.00
5462;BME280;912;48.130;11.348;2022-07-23T01:13:35;95686.06;;;22.65;100.00
5462;BME280;912;48.130;11.348;2022-07-23T01:18:51;95763.94;;;20.38;100.00
5462;BME280;912;48.130;11.348;2022-07-23T01:24:17;95794.89;;;18.77;100.00
5462;BME280;912;48.130;11.348;2022-07-23T01:27:09;95784.36;;;18.92;100.00
5462;BME280;912;48.130;11.348;2022-07-23T01:29:51;95763.17;;;18.93;100.00
5462;BME280;912;48.130;11.348;2022-07-23T01:35:50;95730.27;;;18.17;100.00
5462;BME280;912;48.130;11.348;2022-07-23T01:38:32;95720.70;;;18.08;100.00
5462;BME280;912;48.130;11.348;2022-07-23T01:41:13;95698.20;;;18.03;100.00
5462;BME280;912;48.130;11.348;2022-07-23T01:43:54;95667.32;;;18.01;100.00
5462;BME280;912;48.130;11.348;2022-07-23T01:46:35;95642.21;;;18.01;100.00
5462;BME280;912;48.130;11.348;2022-07-23T01:49:17;95623.84;;;17.98;100.00
5462;BME280;912;48.130;11.348;2022-07-23T01:51:58;95627.31;;;17.94;100.00
5462;BME280;912;48.130;11.348;2022-07-23T01:54:40;95626.36;;;17.92;100.00
5462;BME280;912;48.130;11.348;2022-07-23T01:57:22;95620.23;;;17.88;100.00
5462;BME280;912;48.130;11.348;2022-07-23T02:00:03;95624.00;;;17.90;100.00
5462;BME280;912;48.130;11.348;2022-07-23T02:02:47;95625.59;;;17.88;100.00
5462;BME280;912;48.130;11.348;2022-07-23T02:05:29;95617.11;;;17.95;100.00
5462;BME280;912;48.130;11.348;2022-07-23T02:08:10;95588.69;;;17.97;100.00
5462;BME280;912;48.130;11.348;2022-07-23T02:10:51;95563.25;;;17.97;100.00
5462;BME280;912;48.130;11.348;2022-07-23T02:13:33;95547.69;;;17.88;100.00
5462;BME280;912;48.130;11.348;2022-07-23T02:16:14;95538.58;;;17.81;100.00
5462;BME280;912;48.130;11.348;2022-07-23T02:18:58;95525.80;;;17.84;100.00
5462;BME280;912;48.130;11.348;2022-07-23T02:21:40;95496.34;;;17.84;100.00
5462;BME280;912;48.130;11.348;2022-07-23T02:24:21;95483.45;;;17.85;100.00
5462;BME280;912;48.130;11.348;2022-07-23T02:27:02;95508.98;;;17.89;100.00
5462;BME280;912;48.130;11.348;2022-07-23T02:29:44;95514.94;;;17.75;100.00
5462;BME280;912;48.130;11.348;2022-07-23T02:32:25;95512.00;;;17.72;100.00
5462;BME280;912;48.130;11.348;2022-07-23T02:35:50;95510.50;;;17.88;100.00
5462;BME280;912;48.130;11.348;2022-07-23T02:38:31;95506.84;;;17.99;100.00
5462;BME280;912;48.130;11.348;2022-07-23T02:41:12;95508.47;;;18.08;100.00
5462;BME280;912;48.130;11.348;2022-07-23T02:43:53;95520.91;;;18.13;100.00
5462;BME280;912;48.130;11.348;2022-07-23T02:46:35;95544.23;;;18.20;100.00
5462;BME280;912;48.130;11.348;2022-07-23T02:49:17;95576.34;;;18.16;100.00
5462;BME280;912;48.130;11.348;2022-07-23T02:51:58;95646.78;;;18.01;100.00
5462;BME280;912;48.130;11.348;2022-07-23T02:54:39;95616.78;;;17.94;100.00
5462;BME280;912;48.130;11.348;2022-07-23T02:57:21;95632.98;;;18.00;100.00
5462;BME280;912;48.130;11.348;2022-07-23T03:00:03;95615.35;;;17.97;100.00
5462;BME280;912;48.130;11.348;2022-07-23T03:02:43;95624.95;;;17.99;100.00
5462;BME280;912;48.130;11.348;2022-07-23T03:05:25;95609.42;;;17.96;100.00
5462;BME280;912;48.130;11.348;2022-07-23T03:08:06;95607.12;;;17.91;100.00
5462;BME280;912;48.130;11.348;2022-07-23T03:10:47;95596.83;;;17.89;100.00
5462;BME280;912;48.130;11.348;2022-07-23T03:13:29;95592.23;;;17.83;100.00
5462;BME280;912;48.130;11.348;2022-07-23T03:16:10;95595.23;;;17.80;100.00
5462;BME280;912;48.130;11.348;2022-07-23T03:18:51;95578.40;;;17.80;100.00
5462;BME280;912;48.130;11.348;2022-07-23T03:21:33;95554.74;;;17.80;100.00
5462;BME280;912;48.130;11.348;2022-07-23T03:24:14;95515.52;;;17.89;100.00
5462;BME280;912;48.130;11.348;2022-07-23T03:26:55;95467.70;;;17.88;100.00
5462;BME280;912;48.130;11.348;2022-07-23T03:29:36;95422.73;;;17.90;100.00
5462;BME280;912;48.130;11.348;2022-07-23T03:32:18;95435.81;;;17.88;100.00
5462;BME280;912;48.130;11.348;2022-07-23T03:35:54;95506.72;;;17.91;100.00
5462;BME280;912;48.130;11.348;2022-07-23T03:38:35;95526.87;;;17.89;100.00
5462;BME280;912;48.130;11.348;2022-07-23T03:41:17;95520.66;;;17.76;100.00
5462;BME280;912;48.130;11.348;2022-07-23T03:44:01;95505.08;;;17.70;100.00
5462;BME280;912;48.130;11.348;2022-07-23T03:46:42;95507.55;;;17.66;100.00
5462;BME280;912;48.130;11.348;2022-07-23T03:49:26;95493.83;;;17.62;100.00
5462;BME280;912;48.130;11.348;2022-07-23T03:52:08;95487.58;;;17.61;100.00
5462;BME280;912;48.130;11.348;2022-07-23T03:54:51;95490.63;;;17.63;100.00
5462;BME280;912;48.130;11.348;2022-07-23T03:57:38;95491.05;;;17.64;100.00
5462;BME280;912;48.130;11.348;2022-07-23T04:00:20;95493.22;;;17.66;100.00
5462;BME280;912;48.130;11.348;2022-07-23T04:03:01;95490.06;;;17.67;100.00
5462;BME280;912;48.130;11.348;2022-07-23T04:05:43;95496.36;;;17.67;100.00
5462;BME280;912;48.130;11.348;2022-07-23T04:08:25;95491.53;;;17.68;100.00
5462;BME280;912;48.130;11.348;2022-07-23T04:11:06;95481.63;;;17.69;100.00
5462;BME280;912;48.130;11.348;2022-07-23T04:13:47;95467.11;;;17.70;100.00
5462;BME280;912;48.130;11.348;2022-07-23T04:16:28;95458.31;;;17.72;100.00
5462;BME280;912;48.130;11.348;2022-07-23T04:19:10;95458.82;;;17.75;100.00
5462;BME280;912;48.130;11.348;2022-07-23T04:21:51;95459.97;;;17.76;100.00
5462;BME280;912;48.130;11.348;2022-07-23T04:24:33;95453.84;;;17.75;100.00
5462;BME280;912;48.130;11.348;2022-07-23T04:27:15;95452.81;;;17.75;100.00
5462;BME280;912;48.130;11.348;2022-07-23T04:29:56;95446.02;;;17.74;100.00
5462;BME280;912;48.130;11.348;2022-07-23T04:32:41;95442.95;;;17.79;100.00
5462;BME280;912;48.130;11.348;2022-07-23T04:35:51;95451.91;;;17.76;100.00
5462;BME280;912;48.130;11.348;2022-07-23T04:38:32;95451.89;;;17.81;100.00
5462;BME280;912;48.130;11.348;2022-07-23T04:41:14;95448.36;;;17.82;100.00
5462;BME280;912;48.130;11.348;2022-07-23T04:43:56;95447.75;;;17.85;100.00
5462;BME280;912;48.130;11.348;2022-07-23T04:46:38;95450.33;;;17.86;100.00
5462;BME280;912;48.130;11.348;2022-07-23T04:49:25;95445.01;;;17.94;100.00
5462;BME280;912;48.130;11.348;2022-07-23T04:52:13;95444.03;;;17.97;100.00
5462;BME280;912;48.130;11.348;2022-07-23T04:54:54;95446.29;;;17.96;100.00
5462;BME280;912;48.130;11.348;2022-07-23T04:57:37;95450.94;;;17.96;100.00
5462;BME280;912;48.130;11.348;2022-07-23T05:00:25;95446.75;;;17.97;100.00
5462;BME280;912;48.130;11.348;2022-07-23T05:03:09;95447.09;;;18.00;100.00
5462;BME280;912;48.130;11.348;2022-07-23T05:05:50;95434.86;;;18.00;100.00
5462;BME280;912;48.130;11.348;2022-07-23T05:08:31;95431.73;;;18.04;100.00
5462;BME280;912;48.130;11.348;2022-07-23T05:11:12;95434.73;;;18.06;100.00
5462;BME280;912;48.130;11.348;2022-07-23T05:13:54;95436.92;;;18.07;100.00
5462;BME280;912;48.130;11.348;2022-07-23T05:16:35;95439.52;;;18.07;100.00
5462;BME280;912;48.130;11.348;2022-07-23T05:19:16;95446.47;;;18.05;100.00
5462;BME280;912;48.130;11.348;2022-07-23T05:21:58;95450.30;;;18.08;100.00
5462;BME280;912;48.130;11.348;2022-07-23T05:24:39;95450.44;;;18.13;100.00
5462;BME280;912;48.130;11.348;2022-07-23T05:27:21;95442.55;;;18.23;100.00
5462;BME280;912;48.130;11.348;2022-07-23T05:30:02;95450.34;;;18.31;100.00
5462;BME280;912;48.130;11.348;2022-07-23T05:32:43;95460.23;;;18.48;100.00
5462;BME280;912;48.130;11.348;2022-07-23T05:35:50;95478.16;;;18.62;100.00
5462;BME280;912;48.130;11.348;2022-07-23T05:38:33;95483.80;;;18.54;100.00
5462;BME280;912;48.130;11.348;2022-07-23T05:41:15;95495.59;;;18.56;100.00
5462;BME280;912;48.130;11.348;2022-07-23T05:43:56;95505.91;;;18.64;100.00
5462;BME280;912;48.130;11.348;2022-07-23T05:46:38;95511.13;;;18.73;100.00
5462;BME280;912;48.130;11.348;2022-07-23T05:49:20;95511.66;;;18.85;100.00
5462;BME280;912;48.130;11.348;2022-07-23T05:52:04;95497.06;;;18.93;100.00
5462;BME280;912;48.130;11.348;2022-07-23T05:54:45;95490.99;;;18.99;100.00
5462;BME280;912;48.130;11.348;2022-07-23T05:57:26;95483.70;;;19.00;100.00
5462;BME280;912;48.130;11.348;2022-07-23T06:00:08;95482.99;;;19.05;100.00
5462;BME280;912;48.130;11.348;2022-07-23T06:02:49;95472.16;;;19.02;100.00
5462;BME280;912;48.130;11.348;2022-07-23T06:05:31;95456.13;;;19.01;100.00
5462;BME280;912;48.130;11.348;2022-07-23T06:08:12;95441.22;;;18.90;100.00
5462;BME280;912;48.130;11.348;2022-07-23T06:10:53;95423.05;;;18.90;100.00
5462;BME280;912;48.130;11.348;2022-07-23T06:13:38;95417.25;;;18.97;100.00
5462;BME280;912;48.130;11.348;2022-07-23T06:16:19;95412.75;;;19.01;100.00
5462;BME280;912;48.130;11.348;2022-07-23T06:19:00;95420.32;;;19.11;100.00
5462;BME280;912;48.130;11.348;2022-07-23T06:21:42;95438.66;;;19.29;100.00
5462;BME280;912;48.130;11.348;2022-07-23T06:24:23;95456.43;;;19.32;100.00
5462;BME280;912;48.130;11.348;2022-07-23T06:27:04;95467.16;;;19.32;100.00
5462;BME280;912;48.130;11.348;2022-07-23T06:29:45;95511.00;;;19.31;100.00
5462;BME280;912;48.130;11.348;2022-07-23T06:32:30;95514.97;;;19.19;100.00
5462;BME280;912;48.130;11.348;2022-07-23T06:35:50;95555.75;;;19.21;100.00
5462;BME280;912;48.130;11.348;2022-07-23T06:38:31;95574.92;;;19.24;100.00
5462;BME280;912;48.130;11.348;2022-07-23T06:41:13;95531.09;;;19.27;100.00
5462;BME280;912;48.130;11.348;2022-07-23T06:43:55;95553.33;;;19.57;100.00
5462;BME280;912;48.130;11.348;2022-07-23T06:46:37;95559.67;;;19.52;100.00
5462;BME280;912;48.130;11.348;2022-07-23T06:49:18;95547.47;;;19.45;100.00
5462;BME280;912;48.130;11.348;2022-07-23T06:51:59;95547.23;;;19.38;100.00
5462;BME280;912;48.130;11.348;2022-07-23T06:54:41;95556.32;;;19.33;100.00
5462;BME280;912;48.130;11.348;2022-07-23T06:57:22;95554.02;;;19.27;100.00
5462;BME280;912;48.130;11.348;2022-07-23T07:00:04;95545.77;;;19.25;100.00
5462;BME280;912;48.130;11.348;2022-07-23T07:02:45;95532.61;;;19.27;100.00
5462;BME280;912;48.130;11.348;2022-07-23T07:05:26;95531.45;;;19.29;100.00
5462;BME280;912;48.130;11.348;2022-07-23T07:08:08;95530.24;;;19.34;100.00
5462;BME280;912;48.130;11.348;2022-07-23T07:10:49;95527.47;;;19.43;100.00
5462;BME280;912;48.130;11.348;2022-07-23T07:13:30;95523.12;;;19.61;100.00
5462;BME280;912;48.130;11.348;2022-07-23T07:16:12;95514.77;;;19.79;100.00
5462;BME280;912;48.130;11.348;2022-07-23T07:18:53;95519.09;;;19.79;100.00
5462;BME280;912;48.130;11.348;2022-07-23T07:21:34;95529.66;;;19.82;100.00
5462;BME280;912;48.130;11.348;2022-07-23T07:24:15;95539.66;;;19.80;100.00
5462;BME280;912;48.130;11.348;2022-07-23T07:26:57;95549.23;;;19.75;100.00
5462;BME280;912;48.130;11.348;2022-07-23T07:29:38;95556.59;;;19.73;100.00
5462;BME280;912;48.130;11.348;2022-07-23T07:32:19;95556.63;;;19.77;100.00
5462;BME280;912;48.130;11.348;2022-07-23T07:35:53;95552.98;;;19.90;100.00
5462;BME280;912;48.130;11.348;2022-07-23T07:38:35;95556.63;;;20.02;100.00
5462;BME280;912;48.130;11.348;2022-07-23T07:41:17;95573.14;;;20.11;100.00
5462;BME280;912;48.130;11.348;2022-07-23T07:43:58;95579.55;;;20.09;100.00
5462;BME280;912;48.130;11.348;2022-07-23T07:46:46;95574.97;;;20.08;100.00
5462;BME280;912;48.130;11.348;2022-07-23T07:49:33;95577.07;;;20.09;100.00
5462;BME280;912;48.130;11.348;2022-07-23T07:52:14;95563.52;;;20.05;100.00
5462;BME280;912;48.130;11.348;2022-07-23T07:55:04;95556.23;;;20.15;100.00
5462;BME280;912;48.130;11.348;2022-07-23T07:57:44;95547.44;;;20.26;100.00
5462;BME280;912;48.130;11.348;2022-07-23T08:00:35;95557.64;;;20.40;100.00
5462;BME280;912;48.130;11.348;2022-07-23T08:03:16;95553.64;;;20.44;100.00
5462;BME280;912;48.130;11.348;2022-07-23T08:06:03;95560.84;;;20.58;100.00
5462;BME280;912;48.130;11.348;2022-07-23T08:08:45;95561.53;;;20.59;100.00
5462;BME280;912;48.130;11.348;2022-07-23T08:11:26;95567.73;;;20.73;100.00
5462;BME280;912;48.130;11.348;2022-07-23T08:14:07;95560.52;;;20.92;100.00
5462;BME280;912;48.130;11.348;2022-07-23T08:16:49;95562.89;;;21.07;100.00
5462;BME280;912;48.130;11.348;2022-07-23T08:19:30;95563.73;;;21.16;100.00
5462;BME280;912;48.130;11.348;2022-07-23T08:22:11;95555.75;;;21.50;100.00
5462;BME280;912;48.130;11.348;2022-07-23T08:24:53;95557.61;;;21.87;100.00
5462;BME280;912;48.130;11.348;2022-07-23T08:27:37;95556.82;;;22.14;100.00
5462;BME280;912;48.130;11.348;2022-07-23T08:30:18;95556.86;;;22.25;100.00
5462;BME280;912;48.130;11.348;2022-07-23T08:35:51;95565.82;;;22.30;100.00
5462;BME280;912;48.130;11.348;2022-07-23T08:38:38;95573.09;;;22.38;100.00
5462;BME280;912;48.130;11.348;2022-07-23T08:41:23;95580.90;;;22.40;100.00
5462;BME280;912;48.130;11.348;2022-07-23T08:44:07;95587.55;;;22.46;100.00
5462;BME280;912;48.130;11.348;2022-07-23T08:46:48;95595.16;;;22.62;100.00
5462;BME280;912;48.130;11.348;2022-07-23T08:49:32;95604.69;;;22.63;100.00
5462;BME280;912;48.130;11.348;2022-07-23T08:54:48;95632.00;;;23.19;100.00
5462;BME280;912;48.130;11.348;2022-07-23T08:57:30;95623.50;;;23.60;100.00
5462;BME280;912;48.130;11.348;2022-07-23T09:00:20;95624.50;;;23.68;100.00
5462;BME280;912;48.130;11.348;2022-07-23T09:03:10;95624.27;;;23.86;100.00
5462;BME280;912;48.130;11.348;2022-07-23T09:05:50;95624.82;;;23.55;100.00
5462;BME280;912;48.130;11.348;2022-07-23T09:08:38;95627.15;;;23.47;100.00
5462;BME280;912;48.130;11.348;2022-07-23T09:11:19;95626.61;;;23.59;100.00
5462;BME280;912;48.130;11.348;2022-07-23T09:14:01;95627.28;;;23.90;100.00
5462;BME280;912;48.130;11.348;2022-07-23T09:16:42;95631.48;;;24.33;100.00
5462;BME280;912;48.130;11.348;2022-07-23T09:19:27;95631.37;;;24.94;100.00
5462;BME280;912;48.130;11.348;2022-07-23T09:22:27;95633.66;;;25.35;100.00
5462;BME280;912;48.130;11.348;2022-07-23T09:25:14;95638.32;;;25.35;100.00
5462;BME280;912;48.130;11.348;2022-07-23T09:27:56;95632.38;;;26.15;100.00
5462;BME280;912;48.130;11.348;2022-07-23T09:30:41;95633.27;;;27.90;100.00
5462;BME280;912;48.130;11.348;2022-07-23T09:35:55;95638.45;;;27.91;95.44
5462;BME280;912;48.130;11.348;2022-07-23T09:41:44;95632.77;;;27.80;93.65
5462;BME280;912;48.130;11.348;2022-07-23T09:44:35;95633.09;;;26.53;100.00
5462;BME280;912;48.130;11.348;2022-07-23T09:47:29;95624.97;;;25.94;100.00
5462;BME280;912;48.130;11.348;2022-07-23T09:50:10;95629.55;;;25.60;100.00
5462;BME280;912;48.130;11.348;2022-07-23T09:52:53;95633.16;;;25.77;100.00
5462;BME280;912;48.130;11.348;2022-07-23T09:55:35;95626.91;;;26.65;100.00
5462;BME280;912;48.130;11.348;2022-07-23T09:58:17;95623.48;;;26.54;98.24
5462;BME280;912;48.130;11.348;2022-07-23T10:01:02;95623.64;;;26.87;94.77
5462;BME280;912;48.130;11.348;2022-07-23T10:03:43;95619.33;;;27.72;91.62
5462;BME280;912;48.130;11.348;2022-07-23T10:06:25;95601.84;;;29.78;83.01
5462;BME280;912;48.130;11.348;2022-07-23T10:09:10;95607.23;;;29.31;80.43
5462;BME280;912;48.130;11.348;2022-07-23T10:11:52;95605.34;;;28.64;85.15
5462;BME280;912;48.130;11.348;2022-07-23T10:14:35;95601.97;;;28.78;83.85
5462;BME280;912;48.130;11.348;2022-07-23T10:17:22;95600.52;;;30.05;78.30
5462;BME280;912;48.130;11.348;2022-07-23T10:20:10;95607.05;;;30.49;71.21
5462;BME280;912;48.130;11.348;2022-07-23T10:23:01;95599.91;;;30.25;70.98
5462;BME280;912;48.130;11.348;2022-07-23T10:25:57;95600.61;;;29.81;72.47
5462;BME280;912;48.130;11.348;2022-07-23T10:31:58;95606.95;;;29.43;73.64
5462;BME280;912;48.130;11.348;2022-07-23T10:35:56;95606.31;;;28.48;78.25
5462;BME280;912;48.130;11.348;2022-07-23T10:38:47;95613.42;;;27.96;77.70
5462;BME280;912;48.130;11.348;2022-07-23T10:41:36;95605.28;;;27.38;80.29
5462;BME280;912;48.130;11.348;2022-07-23T10:44:21;95609.53;;;27.52;83.28
5462;BME280;912;48.130;11.348;2022-07-23T10:47:05;95607.89;;;27.68;83.25
5462;BME280;912;48.130;11.348;2022-07-23T10:49:49;95597.08;;;29.16;76.86
5462;BME280;912;48.130;11.348;2022-07-23T10:53:20;95589.54;;;28.63;76.16
5462;BME280;912;48.130;11.348;2022-07-23T10:56:01;95594.77;;;28.37;79.13
5462;BME280;912;48.130;11.348;2022-07-23T10:58:46;95589.39;;;27.70;79.33
5462;BME280;912;48.130;11.348;2022-07-23T11:01:36;95590.48;;;27.45;81.07
5462;BME280;912;48.130;11.348;2022-07-23T11:04:17;95593.64;;;27.39;82.36
5462;BME280;912;48.130;11.348;2022-07-23T11:07:08;95590.74;;;27.47;79.18
5462;BME280;912;48.130;11.348;2022-07-23T11:09:55;95600.05;;;26.90;82.63
5462;BME280;912;48.130;11.348;2022-07-23T11:12:37;95589.28;;;26.42;85.71
5462;BME280;912;48.130;11.348;2022-07-23T11:18:00;95599.00;;;26.11;89.04
5462;BME280;912;48.130;11.348;2022-07-23T11:20:48;95593.14;;;25.87;90.56
5462;BME280;912;48.130;11.348;2022-07-23T11:24:00;95594.83;;;25.65;93.01
5462;BME280;912;48.130;11.348;2022-07-23T11:26:47;95601.19;;;25.71;94.83
5462;BME280;912;48.130;11.348;2022-07-23T11:29:43;95588.73;;;25.66;95.60
5462;BME280;912;48.130;11.348;2022-07-23T11:32:27;95597.75;;;25.32;97.32
5462;BME280;912;48.130;11.348;2022-07-23T11:36:01;95592.75;;;25.39;98.49
5462;BME280;912;48.130;11.348;2022-07-23T11:38:42;95590.83;;;25.80;98.33
5462;BME280;912;48.130;11.348;2022-07-23T11:41:23;95595.22;;;25.60;98.68
5462;BME280;912;48.130;11.348;2022-07-23T11:44:05;95595.98;;;25.28;100.00
5462;BME280;912;48.130;11.348;2022-07-23T11:46:57;95608.80;;;25.27;100.00
5462;BME280;912;48.130;11.348;2022-07-23T11:49:38;95608.11;;;25.15;99.52
5462;BME280;912;48.130;11.348;2022-07-23T11:52:20;95601.66;;;25.02;100.00
5462;BME280;912;48.130;11.348;2022-07-23T11:55:03;95597.61;;;24.94;100.00
5462;BME280;912;48.130;11.348;2022-07-23T11:57:50;95599.59;;;25.02;100.00
5462;BME280;912;48.130;11.348;2022-07-23T12:00:39;95599.98;;;25.28;100.00
5462;BME280;912;48.130;11.348;2022-07-23T12:03:19;95598.23;;;25.17;100.00
5462;BME280;912;48.130;11.348;2022-07-23T12:06:01;95596.16;;;25.19;100.00
5462;BME280;912;48.130;11.348;2022-07-23T12:08:45;95589.20;;;25.26;100.00
5462;BME280;912;48.130;11.348;2022-07-23T12:11:33;95590.66;;;25.12;100.00
5462;BME280;912;48.130;11.348;2022-07-23T12:14:15;95586.95;;;25.07;100.00
5462;BME280;912;48.130;11.348;2022-07-23T12:17:07;95595.25;;;24.64;100.00
5462;BME280;912;48.130;11.348;2022-07-23T12:19:48;95590.66;;;24.58;100.00
5462;BME280;912;48.130;11.348;2022-07-23T12:22:39;95588.45;;;24.72;100.00
5462;BME280;912;48.130;11.348;2022-07-23T12:25:20;95587.98;;;24.69;100.00
5462;BME280;912;48.130;11.348;2022-07-23T12:28:09;95585.25;;;24.68;100.00
5462;BME280;912;48.130;11.348;2022-07-23T12:30:50;95586.80;;;24.62;100.00
5462;BME280;912;48.130;11.348;2022-07-23T12:35:55;95581.79;;;24.89;100.00
5462;BME280;912;48.130;11.348;2022-07-23T12:38:38;95583.00;;;25.41;100.00
5462;BME280;912;48.130;11.348;2022-07-23T12:41:18;95583.36;;;25.53;100.00
5462;BME280;912;48.130;11.348;2022-07-23T12:44:00;95582.20;;;25.65;100.00
5462;BME280;912;48.130;11.348;2022-07-23T12:46:48;95589.16;;;25.89;100.00
5462;BME280;912;48.130;11.348;2022-07-23T12:49:27;95591.40;;;25.53;100.00
5462;BME280;912;48.130;11.348;2022-07-23T12:52:15;95592.84;;;25.67;100.00
5462;BME280;912;48.130;11.348;2022-07-23T12:55:00;95592.66;;;25.61;100.00
5462;BME280;912;48.130;11.348;2022-07-23T12:57:45;95590.77;;;25.71;100.00
5462;BME280;912;48.130;11.348;2022-07-23T13:00:27;95596.41;;;25.82;100.00
5462;BME280;912;48.130;11.348;2022-07-23T13:04:27;95590.30;;;25.57;100.00
5462;BME280;912;48.130;11.348;2022-07-23T13:07:12;95593.89;;;25.12;100.00
5462;BME280;912;48.130;11.348;2022-07-23T13:09:54;95596.23;;;24.83;100.00
5462;BME280;912;48.130;11.348;2022-07-23T13:12:38;95604.31;;;24.83;100.00
5462;BME280;912;48.130;11.348;2022-07-23T13:15:20;95605.05;;;24.71;100.00
5462;BME280;912;48.130;11.348;2022-07-23T13:18:02;95605.84;;;24.62;100.00
5462;BME280;912;48.130;11.348;2022-07-23T13:20:44;95597.20;;;24.68;100.00
5462;BME280;912;48.130;11.348;2022-07-23T13:23:25;95593.53;;;25.49;100.00
5462;BME280;912;48.130;11.348;2022-07-23T13:26:07;95589.55;;;26.09;100.00
5462;BME280;912;48.130;11.348;2022-07-23T13:28:49;95588.45;;;26.14;100.00
5462;BME280;912;48.130;11.348;2022-07-23T13:31:30;95590.34;;;26.71;99.54
5462;BME280;912;48.130;11.348;2022-07-23T13:35:53;95583.20;;;27.22;96.44
5462;BME280;912;48.130;11.348;2022-07-23T13:38:35;95581.20;;;26.26;98.88
5462;BME280;912;48.130;11.348;2022-07-23T13:41:17;95578.28;;;26.09;99.32
5462;BME280;912;48.130;11.348;2022-07-23T13:43:59;95583.75;;;25.73;100.00
5462;BME280;912;48.130;11.348;2022-07-23T13:46:41;95581.78;;;25.47;100.00
5462;BME280;912;48.130;11.348;2022-07-23T13:49:22;95583.88;;;25.43;100.00
5462;BME280;912;48.130;11.348;2022-07-23T13:52:04;95579.41;;;25.19;100.00
5462;BME280;912;48.130;11.348;2022-07-23T13:54:46;95582.81;;;25.35;100.00
5462;BME280;912;48.130;11.348;2022-07-23T13:57:28;95582.97;;;25.18;100.00
5462;BME280;912;48.130;11.348;2022-07-23T14:00:10;95579.61;;;25.05;100.00
5462;BME280;912;48.130;11.348;2022-07-23T14:02:52;95568.05;;;25.15;100.00
5462;BME280;912;48.130;11.348;2022-07-23T14:05:33;95567.22;;;25.12;100.00
5462;BME280;912;48.130;11.348;2022-07-23T14:08:15;95568.37;;;24.99;100.00
5462;BME280;912;48.130;11.348;2022-07-23T14:11:00;95572.56;;;24.89;100.00
5462;BME280;912;48.130;11.348;2022-07-23T14:13:41;95583.98;;;25.07;100.00
5462;BME280;912;48.130;11.348;2022-07-23T14:17:47;95578.98;;;26.16;100.00
5462;BME280;912;48.130;11.348;2022-07-23T14:20:31;95576.41;;;26.53;99.19
5462;BME280;912;48.130;11.348;2022-07-23T14:23:13;95579.32;;;26.84;95.97
5462;BME280;912;48.130;11.348;2022-07-23T14:25:58;95578.66;;;26.63;97.40
5462;BME280;912;48.130;11.348;2022-07-23T14:28:40;95582.97;;;26.26;97.48
5462;BME280;912;48.130;11.348;2022-07-23T14:31:22;95580.09;;;26.00;100.00
5462;BME280;912;48.130;11.348;2022-07-23T14:35:50;95577.64;;;26.08;100.00
5462;BME280;912;48.130;11.348;2022-07-23T14:41:09;95564.44;;;26.64;97.72
5462;BME280;912;48.130;11.348;2022-07-23T14:43:51;95555.78;;;26.45;98.26
5462;BME280;912;48.130;11.348;2022-07-23T14:46:33;95549.80;;;26.42;97.95
5462;BME280;912;48.130;11.348;2022-07-23T14:49:16;95539.63;;;26.42;98.47
5462;BME280;912;48.130;11.348;2022-07-23T14:51:58;95541.25;;;26.22;100.00
5462;BME280;912;48.130;11.348;2022-07-23T14:54:40;95541.05;;;25.54;100.00
5462;BME280;912;48.130;11.348;2022-07-23T14:57:22;95543.09;;;25.66;100.00
5462;BME280;912;48.130;11.348;2022-07-23T15:00:04;95550.64;;;25.99;100.00
5462;BME280;912;48.130;11.348;2022-07-23T15:02:52;95552.22;;;25.96;100.00
5462;BME280;912;48.130;11.348;2022-07-23T15:05:33;95551.27;;;26.26;98.43
5462;BME280;912;48.130;11.348;2022-07-23T15:08:18;95545.97;;;26.73;96.93
5462;BME280;912;48.130;11.348;2022-07-23T15:10:59;95553.62;;;26.91;94.20
5462;BME280;912;48.130;11.348;2022-07-23T15:13:41;95561.91;;;26.58;96.28
5462;BME280;912;48.130;11.348;2022-07-23T15:16:23;95567.72;;;26.49;98.87
5462;BME280;912;48.130;11.348;2022-07-23T15:19:05;95567.46;;;26.28;99.50
5462;BME280;912;48.130;11.348;2022-07-23T15:21:49;95569.78;;;27.42;95.56